TAF Germany/Deutschland - 19 Feb 2018 - 0147 UTC - RocketRoute WX - rrwx.com
EDDB 182300Z 1900/1924 15004KT 9999 SCT035 BECMG 1915/1918 09005KT EDDW 182300Z 1900/1924 16003KT CAVOK PROB30 TEMPO 1904/1908 4000 BR TEMPO 1911/1914 19008KT EDDC 182300Z 1900/1924 16007KT 9999 SCT035 BECMG 1915/1918 10005KT EDDL 182300Z 1900/2006 17008KT CAVOK BECMG 1913/1916 12003KT EDFH 182300Z 1900/1924 13005KT 9999 FEW010 PROB30 TEMPO 1900/1924 BKN005 PROB30 TEMPO 1904/1910 2000 BCFG EDDF 182300Z 1900/2006 VRB03KT 9999 FEW020 PROB30 TEMPO 1900/2006 BKN014 EDDH 182300Z 1900/2006 18004KT CAVOK BECMG 1923/2001 08005KT EDDV 182300Z 1900/1924 18004KT CAVOK BECMG 1922/1924 08005KT EDAH   EDSB 181700Z 1818/1918 VRB03KT 5000 BR SCT008 BKN020 BECMG 1818/1821 3000 BR BKN008 TEMPO 1820/1909 2000 BR BKN004 BECMG 1911/1914 6000 SCT010 EDVK 182000Z 1821/1903 VRB03KT CAVOK EDDK 182300Z 1900/2006 12004KT CAVOK ETNL 182300Z 1900/1912 18005KT 9999 NSW BKN100 TEMPO 1903/1907 20003KT 5000 BR BKN100 BY ETGL EDDP 182300Z 1900/1924 17006KT CAVOK BECMG 1912/1915 10005KT EDHL   EDDM 182300Z 1900/2006 06006KT 7000 FEW007 BECMG 1901/1903 4000 BR OVC008 BECMG 1908/1910 8000 OVC012 TEMPO 1910/1913 BKN015 BECMG 1913/1916 VRB03KT BKN015 EDDG 182300Z 1900/1924 13003KT CAVOK PROB30 TEMPO 1906/1908 4000 BR EDDN 182300Z 1900/1924 08005KT 9999 BKN030 BECMG 1911/1913 VRB03KT EDLP 182300Z 1900/1924 15004KT CAVOK EDDR 182300Z 1900/1924 07004KT 9999 FEW015 PROB30 TEMPO 1900/1924 BKN008 PROB30 TEMPO 1904/1908 4000 BR EDDS 182300Z 1900/1924 VRB03KT 9999 SCT020 PROB30 TEMPO 1900/1924 BKN014 PROB30 TEMPO 1904/1910 4000 BR EDXW   EDDT 182300Z 1900/1924 16004KT 9999 SCT035 BECMG 1915/1918 10005KT

RocketRoute WX - rrwx.com weather for pilots